Flight Track Log - Related Links

Times and Time Zones

All times are in EDT time to prevent confusion due to time zone crossing. See the AWI3725 flight status page for this flight to view local times or setup timezone preferences in your user account.

Time Position Orientation Groundspeed Altitude Reporting Facility
EDT Latitude Longitude Course Direction KTS MPH feet Rate Location/Type
Sat 01:59:37 PM 40.0047 -82.9267 278° West 145 167 2,300  Level Indianapolis Center
Sat 02:00:16 PM 40.0083 -82.9622 278° West 158 182 3,600 2,600 Climbing Indianapolis Center
Sat 02:00:37 PM 40.0094 -82.9875 273° West 170 196 4,900 3,049 Climbing Indianapolis Center
Sat 02:01:17 PM 39.9881 -83.0139 223° Southwest 189 217 6,700 2,423 Climbing Indianapolis Center
Sat 02:02:00 PM 39.5982 -82.7197 170° South  Level Estimated
Sat 02:02:21 PM 39.9297 -82.9717 151° Southeast 237 273 9,100  Level Indianapolis Center
Sat 02:03:00 PM 39.4975 -82.7586 197° South  Level FlightAware Approximate
Sat 02:03:21 PM 39.8519 -82.9475 167° South 283 326 11,100  Level Indianapolis Center
Sat 02:04:00 PM 39.3982 -82.7141 173° South  Level Estimated
Sat 02:04:24 PM 39.7656 -82.9272 170° South 307 353 13,000  Level Indianapolis Center
Sat 02:05:25 PM 39.6706 -82.9039 169° South 334 384 15,100 2,262 Climbing Indianapolis Center
Sat 02:06:26 PM 39.5508 -82.8742 169° South 357 411 17,600 2,208 Climbing Indianapolis Center
Sat 02:07:30 PM 39.4492 -82.8481 169° South 366 421 19,700 1,645 Climbing Indianapolis Center
Sat 02:08:30 PM 39.3428 -82.8222 169° South 381 438 21,000 645 Climbing Indianapolis Center
Sat 02:09:31 PM 39.2361 -82.7958 169° South 387 445 21,000  Level Indianapolis Center
Sat 02:10:34 PM 39.1378 -82.7717 169° South 387 445 21,000  Level Indianapolis Center
Sat 02:11:35 PM 39.0350 -82.7483 170° South 380 437 21,000  Level Indianapolis Center
Sat 02:12:37 PM 38.9136 -82.7175 169° South 373 429 21,000  Level Indianapolis Center
Sat 02:13:38 PM 38.8131 -82.6936 170° South 373 429 21,000  Level Indianapolis Center
Sat 02:14:41 PM 38.7097 -82.6672 169° South 376 433 21,000  Level Indianapolis Center
Sat 02:15:41 PM 38.6106 -82.6428 169° South 378 435 21,000  Level Indianapolis Center
Sat 02:16:41 PM 38.5097 -82.6178 169° South 375 432 21,000  Level Indianapolis Center
Sat 02:17:43 PM 38.3881 -82.5886 169° South 375 432 21,000  Level Indianapolis Center
Sat 02:18:48 PM 38.2861 -82.5636 169° South 375 432 21,000  Level Indianapolis Center
Sat 02:19:48 PM 38.1844 -82.5397 170° South 375 432 21,000  Level Indianapolis Center
Sat 02:20:50 PM 38.0836 -82.5153 169° South 373 429 21,000  Level Indianapolis Center
Sat 02:21:50 PM 37.9819 -82.4925 170° South 372 428 21,000  Level Indianapolis Center
Sat 02:22:52 PM 37.8808 -82.4672 169° South 371 427 21,000  Level Indianapolis Center
Sat 02:23:53 PM 37.7797 -82.4433 169° South 371 427 21,000  Level Indianapolis Center
Sat 02:24:54 PM 37.6792 -82.4197 169° South 370 426 21,000  Level Indianapolis Center
Sat 02:25:55 PM 37.5617 -82.3914 169° South 369 425 21,000  Level Indianapolis Center
Sat 02:26:56 PM 37.4611 -82.3675 169° South 369 425 21,000  Level Indianapolis Center
Sat 02:28:00 PM 37.3603 -82.3439 169° South 369 425 21,000  Level Indianapolis Center
Sat 02:29:00 PM 37.2589 -82.3206 170° South 369 425 21,000  Level Indianapolis Center
Sat 02:30:02 PM 37.1589 -82.2964 169° South 368 423 21,000  Level Indianapolis Center
Sat 02:31:04 PM 37.0586 -82.2722 169° South 368 423 21,000  Level Indianapolis Center
Sat 02:32:05 PM 36.9583 -82.2503 170° South 367 422 21,000  Level Indianapolis Center
Sat 02:33:06 PM 36.8592 -82.2269 169° South 364 419 21,000  Level Indianapolis Center
Sat 02:34:07 PM 36.7611 -82.2039 169° South 362 417 21,000  Level Indianapolis Center
Sat 02:35:09 PM 36.6633 -82.1819 170° South 359 413 21,000  Level Indianapolis Center
Sat 02:36:04 PM 36.5569 -82.1572 169° South 358 412 21,000  Level Atlanta Center
Sat 02:37:04 PM 36.4586 -82.1364 170° South 358 412 21,000  Level Atlanta Center
Sat 02:38:04 PM 36.3639 -82.0844 156° South 358 412 21,000 -100 Level Atlanta Center
Sat 02:39:04 PM 36.2733 -82.0247 152° Southeast 363 418 20,800 -800 Descending Atlanta Center
Sat 02:40:04 PM 36.1889 -81.9678 151° Southeast 373 429 19,400 -1,450 Descending Atlanta Center
Sat 02:41:04 PM 36.0833 -81.8986 152° Southeast 401 461 17,900 -1,500 Descending Atlanta Center
Sat 02:42:04 PM 35.9778 -81.8294 152° Southeast 421 484 16,400 -1,450 Descending Atlanta Center
Sat 02:43:04 PM 35.8744 -81.7606 152° Southeast 421 484 15,000 -1,513 Descending Atlanta Center
Sat 02:44:03 PM 35.7647 -81.6919 153° Southeast 405 466 13,400 -1,400 Descending Atlanta Center
Sat 02:45:04 PM 35.6758 -81.6356 153° Southeast 405 466 12,200 -724 Descending Atlanta Center
Sat 02:45:59 PM 35.5975 -81.5717 146° Southeast 320 368 12,000 -103 Descending Atlanta Center
Sat 02:47:00 PM 35.5372 -81.4842 130° Southeast 327 376 12,000  Level Atlanta Center
Sat 02:48:01 PM 35.4811 -81.3967 128° Southeast 334 384 12,000 -541 Level Atlanta Center
Sat 02:49:02 PM 35.4208 -81.3067 129° Southeast 325 374 10,900 -1,293 Descending Atlanta Center
Sat 02:49:57 PM 35.3669 -81.2297 131° Southeast 314 361 9,500 -934 Descending Atlanta Center
Sat 02:51:04 PM 35.3042 -81.1375 130° Southeast 320 368 9,000 -236 Descending Atlanta Center
Sat 02:52:04 PM 35.2483 -81.0733 137° Southeast 305 351 9,000 -550 Level Atlanta Center
Sat 02:53:04 PM 35.1794 -81.0683 177° South 256 295 7,900 -1,015 Descending Atlanta Center
Sat 02:54:14 PM 35.1064 -81.0606 175° South 227 261 6,800 -1,008 Descending Atlanta Center
Sat 02:55:15 PM 35.0394 -81.0556 177° South 216 249 5,700 -931 Descending Atlanta Center
Sat 02:56:10 PM 34.9908 -81.0344 160° South 210 242 5,000 -724 Descending Atlanta Center
Sat 02:57:11 PM 35.0039 -80.9656 77° East 208 239 4,300 -590 Descending Atlanta Center
Sat 02:58:12 PM 35.0558 -80.9558 North 179 206 3,800 -738 Descending Atlanta Center
Sat 02:59:13 PM 35.1058 -80.9617 355° North 178 205 2,800 -1,033 Descending Atlanta Center
Sat 03:00:14 PM 35.1542 -80.9675 354° North 151 174 1,700 -878 Descending Atlanta Center
Sat 03:01:16 PM 35.1958 -80.9686 359° North 146 168 1,000 -677 Descending Atlanta Center
Sat 03:03:00 PM 35.2137 -80.9491 175° South  Level Estimated

Login

Don't have an account? Register now (free) for customized features, flight alerts, and more!